sensor_id;sensor_type;location;lat;lon;timestamp;P1;durP1;ratioP1;P2;durP2;ratioP2
75035;SDS011;64247;51.540;5.854;2023-02-28T00:00:28;10.40;;;5.55;;
75035;SDS011;64247;51.540;5.854;2023-02-28T00:02:29;9.80;;;5.35;;
75035;SDS011;64247;51.540;5.854;2023-02-28T00:04:29;9.85;;;5.00;;
75035;SDS011;64247;51.540;5.854;2023-02-28T00:06:30;12.15;;;6.18;;
75035;SDS011;64247;51.540;5.854;2023-02-28T00:08:31;6.97;;;5.30;;
75035;SDS011;64247;51.540;5.854;2023-02-28T00:10:31;8.13;;;5.05;;
75035;SDS011;64247;51.540;5.854;2023-02-28T00:12:32;7.80;;;5.07;;
75035;SDS011;64247;51.540;5.854;2023-02-28T00:14:33;8.40;;;5.38;;
75035;SDS011;64247;51.540;5.854;2023-02-28T00:16:33;11.38;;;5.90;;
75035;SDS011;64247;51.540;5.854;2023-02-28T00:18:35;12.73;;;5.80;;
75035;SDS011;64247;51.540;5.854;2023-02-28T00:20:36;15.82;;;6.13;;
75035;SDS011;64247;51.540;5.854;2023-02-28T00:22:36;7.97;;;5.22;;
75035;SDS011;64247;51.540;5.854;2023-02-28T00:24:37;10.73;;;5.78;;
75035;SDS011;64247;51.540;5.854;2023-02-28T00:26:38;11.57;;;5.72;;
75035;SDS011;64247;51.540;5.854;2023-02-28T00:28:38;11.00;;;5.45;;
75035;SDS011;64247;51.540;5.854;2023-02-28T00:30:39;12.63;;;5.60;;
75035;SDS011;64247;51.540;5.854;2023-02-28T00:32:40;9.68;;;4.82;;
75035;SDS011;64247;51.540;5.854;2023-02-28T00:34:40;13.93;;;5.72;;
75035;SDS011;64247;51.540;5.854;2023-02-28T00:36:42;9.00;;;5.35;;
75035;SDS011;64247;51.540;5.854;2023-02-28T00:38:45;12.05;;;5.55;;
75035;SDS011;64247;51.540;5.854;2023-02-28T00:40:46;8.98;;;5.68;;
75035;SDS011;64247;51.540;5.854;2023-02-28T00:42:46;13.82;;;5.40;;
75035;SDS011;64247;51.540;5.854;2023-02-28T00:44:47;9.23;;;4.95;;
75035;SDS011;64247;51.540;5.854;2023-02-28T00:46:48;10.50;;;5.38;;
75035;SDS011;64247;51.540;5.854;2023-02-28T00:48:48;9.43;;;5.35;;
75035;SDS011;64247;51.540;5.854;2023-02-28T00:50:49;8.20;;;5.47;;
75035;SDS011;64247;51.540;5.854;2023-02-28T00:52:50;7.40;;;4.93;;
75035;SDS011;64247;51.540;5.854;2023-02-28T00:54:50;10.25;;;5.72;;
75035;SDS011;64247;51.540;5.854;2023-02-28T00:56:51;9.38;;;5.78;;
75035;SDS011;64247;51.540;5.854;2023-02-28T00:58:52;10.63;;;5.13;;
75035;SDS011;64247;51.540;5.854;2023-02-28T01:02:53;5.85;;;4.32;;
75035;SDS011;64247;51.540;5.854;2023-02-28T01:04:56;8.65;;;4.97;;
75035;SDS011;64247;51.540;5.854;2023-02-28T01:06:57;10.48;;;5.78;;
75035;SDS011;64247;51.540;5.854;2023-02-28T01:08:58;9.63;;;5.43;;
75035;SDS011;64247;51.540;5.854;2023-02-28T01:11:06;7.60;;;5.40;;
75035;SDS011;64247;51.540;5.854;2023-02-28T01:13:07;7.93;;;5.38;;
75035;SDS011;64247;51.540;5.854;2023-02-28T01:15:11;10.65;;;5.70;;
75035;SDS011;64247;51.540;5.854;2023-02-28T01:17:11;10.23;;;5.40;;
75035;SDS011;64247;51.540;5.854;2023-02-28T01:19:12;9.73;;;5.32;;
75035;SDS011;64247;51.540;5.854;2023-02-28T01:21:13;11.30;;;5.63;;
75035;SDS011;64247;51.540;5.854;2023-02-28T01:23:14;17.73;;;5.25;;
75035;SDS011;64247;51.540;5.854;2023-02-28T01:25:15;10.45;;;5.28;;
75035;SDS011;64247;51.540;5.854;2023-02-28T01:27:16;12.55;;;5.65;;
75035;SDS011;64247;51.540;5.854;2023-02-28T01:29:16;10.93;;;5.55;;
75035;SDS011;64247;51.540;5.854;2023-02-28T01:31:17;10.48;;;5.55;;
75035;SDS011;64247;51.540;5.854;2023-02-28T01:35:18;10.70;;;5.20;;
75035;SDS011;64247;51.540;5.854;2023-02-28T01:37:19;11.45;;;5.22;;
75035;SDS011;64247;51.540;5.854;2023-02-28T01:39:20;10.23;;;6.22;;
75035;SDS011;64247;51.540;5.854;2023-02-28T01:41:24;9.00;;;5.22;;
75035;SDS011;64247;51.540;5.854;2023-02-28T01:43:28;9.68;;;5.45;;
75035;SDS011;64247;51.540;5.854;2023-02-28T01:45:30;8.20;;;5.07;;
75035;SDS011;64247;51.540;5.854;2023-02-28T01:47:38;9.85;;;5.22;;
75035;SDS011;64247;51.540;5.854;2023-02-28T01:49:40;11.88;;;5.22;;
75035;SDS011;64247;51.540;5.854;2023-02-28T01:51:45;9.48;;;5.50;;
75035;SDS011;64247;51.540;5.854;2023-02-28T01:53:51;10.80;;;6.28;;
75035;SDS011;64247;51.540;5.854;2023-02-28T01:55:53;11.10;;;6.00;;
75035;SDS011;64247;51.540;5.854;2023-02-28T01:57:55;8.48;;;5.63;;
75035;SDS011;64247;51.540;5.854;2023-02-28T02:00:00;13.45;;;5.63;;
75035;SDS011;64247;51.540;5.854;2023-02-28T02:02:25;11.88;;;6.38;;
75035;SDS011;64247;51.540;5.854;2023-02-28T02:04:27;9.80;;;5.95;;
75035;SDS011;64247;51.540;5.854;2023-02-28T02:06:40;8.75;;;5.13;;
75035;SDS011;64247;51.540;5.854;2023-02-28T02:08:44;8.25;;;5.43;;
75035;SDS011;64247;51.540;5.854;2023-02-28T02:10:45;12.00;;;5.63;;
75035;SDS011;64247;51.540;5.854;2023-02-28T02:15:12;13.15;;;6.43;;
75035;SDS011;64247;51.540;5.854;2023-02-28T02:17:19;12.80;;;6.50;;
75035;SDS011;64247;51.540;5.854;2023-02-28T02:21:57;11.07;;;6.05;;
75035;SDS011;64247;51.540;5.854;2023-02-28T02:29:06;12.30;;;5.85;;
75035;SDS011;64247;51.540;5.854;2023-02-28T02:44:00;9.00;;;5.65;;
75035;SDS011;64247;51.540;5.854;2023-02-28T02:45:59;8.60;;;5.78;;
75035;SDS011;64247;51.540;5.854;2023-02-28T02:48:03;13.73;;;6.18;;
75035;SDS011;64247;51.540;5.854;2023-02-28T02:50:05;14.40;;;6.38;;
75035;SDS011;64247;51.540;5.854;2023-02-28T02:52:08;11.52;;;6.05;;
75035;SDS011;64247;51.540;5.854;2023-02-28T02:54:12;14.57;;;6.43;;
75035;SDS011;64247;51.540;5.854;2023-02-28T02:56:19;10.82;;;6.70;;
75035;SDS011;64247;51.540;5.854;2023-02-28T02:58:22;9.57;;;5.65;;
75035;SDS011;64247;51.540;5.854;2023-02-28T03:00:25;17.42;;;6.70;;
75035;SDS011;64247;51.540;5.854;2023-02-28T03:02:27;9.57;;;5.63;;
75035;SDS011;64247;51.540;5.854;2023-02-28T03:04:36;10.90;;;5.90;;
75035;SDS011;64247;51.540;5.854;2023-02-28T03:06:38;12.02;;;5.18;;
75035;SDS011;64247;51.540;5.854;2023-02-28T03:08:39;11.77;;;5.28;;
75035;SDS011;64247;51.540;5.854;2023-02-28T03:10:40;10.27;;;5.50;;
75035;SDS011;64247;51.540;5.854;2023-02-28T03:12:45;9.15;;;5.65;;
75035;SDS011;64247;51.540;5.854;2023-02-28T03:16:56;6.10;;;4.50;;
75035;SDS011;64247;51.540;5.854;2023-02-28T03:21:32;12.15;;;5.05;;
75035;SDS011;64247;51.540;5.854;2023-02-28T03:23:38;9.07;;;6.57;;
75035;SDS011;64247;51.540;5.854;2023-02-28T03:25:56;9.27;;;5.50;;
75035;SDS011;64247;51.540;5.854;2023-02-28T03:28:08;12.13;;;5.60;;
75035;SDS011;64247;51.540;5.854;2023-02-28T03:30:17;9.60;;;4.95;;
75035;SDS011;64247;51.540;5.854;2023-02-28T03:32:36;10.45;;;5.43;;
75035;SDS011;64247;51.540;5.854;2023-02-28T03:34:43;10.40;;;5.57;;
75035;SDS011;64247;51.540;5.854;2023-02-28T03:38:51;9.63;;;5.53;;
75035;SDS011;64247;51.540;5.854;2023-02-28T03:41:02;7.70;;;4.88;;
75035;SDS011;64247;51.540;5.854;2023-02-28T03:43:08;10.55;;;5.57;;
75035;SDS011;64247;51.540;5.854;2023-02-28T03:45:14;12.15;;;5.20;;
75035;SDS011;64247;51.540;5.854;2023-02-28T03:47:19;11.00;;;5.82;;
75035;SDS011;64247;51.540;5.854;2023-02-28T03:49:22;9.23;;;5.85;;
75035;SDS011;64247;51.540;5.854;2023-02-28T03:51:23;10.85;;;6.47;;
75035;SDS011;64247;51.540;5.854;2023-02-28T03:53:29;8.55;;;5.15;;
75035;SDS011;64247;51.540;5.854;2023-02-28T03:55:33;15.57;;;5.10;;
75035;SDS011;64247;51.540;5.854;2023-02-28T03:58:11;11.77;;;5.80;;
75035;SDS011;64247;51.540;5.854;2023-02-28T04:00:04;9.65;;;5.15;;
75035;SDS011;64247;51.540;5.854;2023-02-28T04:02:26;10.07;;;5.53;;
75035;SDS011;64247;51.540;5.854;2023-02-28T04:04:27;9.32;;;4.85;;
75035;SDS011;64247;51.540;5.854;2023-02-28T04:06:27;12.52;;;6.18;;
75035;SDS011;64247;51.540;5.854;2023-02-28T04:08:31;9.13;;;5.32;;
75035;SDS011;64247;51.540;5.854;2023-02-28T04:10:31;11.30;;;5.57;;
75035;SDS011;64247;51.540;5.854;2023-02-28T04:12:32;7.97;;;5.38;;
75035;SDS011;64247;51.540;5.854;2023-02-28T04:14:32;10.57;;;5.22;;
75035;SDS011;64247;51.540;5.854;2023-02-28T04:16:34;10.18;;;5.53;;
75035;SDS011;64247;51.540;5.854;2023-02-28T04:18:34;6.97;;;5.43;;
75035;SDS011;64247;51.540;5.854;2023-02-28T04:20:35;7.32;;;5.10;;
75035;SDS011;64247;51.540;5.854;2023-02-28T04:22:35;9.45;;;4.95;;
75035;SDS011;64247;51.540;5.854;2023-02-28T04:24:37;8.38;;;5.18;;
75035;SDS011;64247;51.540;5.854;2023-02-28T04:26:42;9.73;;;4.57;;
75035;SDS011;64247;51.540;5.854;2023-02-28T04:28:43;13.00;;;5.60;;
75035;SDS011;64247;51.540;5.854;2023-02-28T04:30:44;9.27;;;5.10;;
75035;SDS011;64247;51.540;5.854;2023-02-28T04:32:44;10.38;;;5.43;;
75035;SDS011;64247;51.540;5.854;2023-02-28T04:34:45;9.73;;;5.50;;
75035;SDS011;64247;51.540;5.854;2023-02-28T04:36:45;9.65;;;5.30;;
75035;SDS011;64247;51.540;5.854;2023-02-28T04:38:49;7.40;;;4.80;;
75035;SDS011;64247;51.540;5.854;2023-02-28T04:40:49;7.93;;;4.63;;
75035;SDS011;64247;51.540;5.854;2023-02-28T04:42:50;8.93;;;4.93;;
75035;SDS011;64247;51.540;5.854;2023-02-28T04:44:50;9.25;;;5.13;;
75035;SDS011;64247;51.540;5.854;2023-02-28T04:46:51;10.32;;;5.38;;
75035;SDS011;64247;51.540;5.854;2023-02-28T04:48:52;8.90;;;4.82;;
75035;SDS011;64247;51.540;5.854;2023-02-28T04:50:53;7.90;;;4.22;;
75035;SDS011;64247;51.540;5.854;2023-02-28T04:52:54;7.82;;;4.72;;
75035;SDS011;64247;51.540;5.854;2023-02-28T04:54:55;7.47;;;4.43;;
75035;SDS011;64247;51.540;5.854;2023-02-28T04:56:55;9.98;;;5.07;;
75035;SDS011;64247;51.540;5.854;2023-02-28T04:58:56;8.40;;;4.30;;
75035;SDS011;64247;51.540;5.854;2023-02-28T05:01:07;8.80;;;4.65;;
75035;SDS011;64247;51.540;5.854;2023-02-28T05:03:15;7.72;;;4.45;;
75035;SDS011;64247;51.540;5.854;2023-02-28T05:07:18;9.70;;;3.80;;
75035;SDS011;64247;51.540;5.854;2023-02-28T05:09:18;7.60;;;4.28;;
75035;SDS011;64247;51.540;5.854;2023-02-28T05:11:20;6.15;;;4.15;;
75035;SDS011;64247;51.540;5.854;2023-02-28T05:13:21;6.80;;;4.78;;
75035;SDS011;64247;51.540;5.854;2023-02-28T05:15:23;8.80;;;4.72;;
75035;SDS011;64247;51.540;5.854;2023-02-28T05:17:23;6.70;;;4.05;;
75035;SDS011;64247;51.540;5.854;2023-02-28T05:21:32;6.40;;;4.05;;
75035;SDS011;64247;51.540;5.854;2023-02-28T05:23:32;8.15;;;4.00;;
75035;SDS011;64247;51.540;5.854;2023-02-28T05:27:34;9.02;;;4.78;;
75035;SDS011;64247;51.540;5.854;2023-02-28T05:29:34;6.50;;;3.80;;
75035;SDS011;64247;51.540;5.854;2023-02-28T05:31:43;11.00;;;3.67;;
75035;SDS011;64247;51.540;5.854;2023-02-28T05:33:44;9.00;;;4.40;;
75035;SDS011;64247;51.540;5.854;2023-02-28T05:35:44;6.97;;;4.57;;
75035;SDS011;64247;51.540;5.854;2023-02-28T05:37:45;10.02;;;4.43;;
75035;SDS011;64247;51.540;5.854;2023-02-28T05:41:45;7.53;;;4.10;;
75035;SDS011;64247;51.540;5.854;2023-02-28T05:43:46;7.57;;;4.20;;
75035;SDS011;64247;51.540;5.854;2023-02-28T05:45:47;8.30;;;4.32;;
75035;SDS011;64247;51.540;5.854;2023-02-28T05:47:48;8.63;;;3.95;;
75035;SDS011;64247;51.540;5.854;2023-02-28T05:49:48;10.80;;;4.72;;
75035;SDS011;64247;51.540;5.854;2023-02-28T05:51:49;8.35;;;4.78;;
75035;SDS011;64247;51.540;5.854;2023-02-28T05:53:49;5.97;;;3.88;;
75035;SDS011;64247;51.540;5.854;2023-02-28T05:55:50;8.98;;;5.20;;
75035;SDS011;64247;51.540;5.854;2023-02-28T05:57:51;7.95;;;3.97;;
75035;SDS011;64247;51.540;5.854;2023-02-28T06:01:52;5.88;;;3.80;;
75035;SDS011;64247;51.540;5.854;2023-02-28T06:03:53;5.88;;;3.95;;
75035;SDS011;64247;51.540;5.854;2023-02-28T06:05:53;9.30;;;4.75;;
75035;SDS011;64247;51.540;5.854;2023-02-28T06:07:54;6.55;;;4.28;;
75035;SDS011;64247;51.540;5.854;2023-02-28T06:09:55;7.72;;;4.32;;
75035;SDS011;64247;51.540;5.854;2023-02-28T06:11:57;12.10;;;4.78;;
75035;SDS011;64247;51.540;5.854;2023-02-28T06:13:58;8.45;;;4.15;;
75035;SDS011;64247;51.540;5.854;2023-02-28T06:16:02;7.78;;;4.10;;
75035;SDS011;64247;51.540;5.854;2023-02-28T06:18:03;5.65;;;4.05;;
75035;SDS011;64247;51.540;5.854;2023-02-28T06:20:04;8.07;;;4.07;;
75035;SDS011;64247;51.540;5.854;2023-02-28T06:22:05;7.30;;;4.75;;
75035;SDS011;64247;51.540;5.854;2023-02-28T06:24:06;6.45;;;3.92;;
75035;SDS011;64247;51.540;5.854;2023-02-28T06:26:07;7.60;;;3.53;;
75035;SDS011;64247;51.540;5.854;2023-02-28T06:28:07;9.10;;;5.00;;
75035;SDS011;64247;51.540;5.854;2023-02-28T06:30:08;12.82;;;4.20;;
75035;SDS011;64247;51.540;5.854;2023-02-28T06:32:09;8.65;;;4.18;;
75035;SDS011;64247;51.540;5.854;2023-02-28T06:34:10;11.13;;;4.60;;
75035;SDS011;64247;51.540;5.854;2023-02-28T06:36:14;8.75;;;3.95;;
75035;SDS011;64247;51.540;5.854;2023-02-28T06:38:15;6.45;;;3.42;;
75035;SDS011;64247;51.540;5.854;2023-02-28T06:40:16;7.88;;;4.15;;
75035;SDS011;64247;51.540;5.854;2023-02-28T06:42:17;9.45;;;3.97;;
75035;SDS011;64247;51.540;5.854;2023-02-28T06:44:17;12.27;;;4.28;;
75035;SDS011;64247;51.540;5.854;2023-02-28T06:46:18;5.32;;;3.47;;
75035;SDS011;64247;51.540;5.854;2023-02-28T06:48:19;6.22;;;3.45;;
75035;SDS011;64247;51.540;5.854;2023-02-28T06:50:19;6.50;;;4.10;;
75035;SDS011;64247;51.540;5.854;2023-02-28T06:54:22;5.90;;;3.45;;
75035;SDS011;64247;51.540;5.854;2023-02-28T06:56:22;4.18;;;3.08;;
75035;SDS011;64247;51.540;5.854;2023-02-28T06:58:23;7.00;;;3.72;;
75035;SDS011;64247;51.540;5.854;2023-02-28T07:00:24;6.53;;;3.45;;
75035;SDS011;64247;51.540;5.854;2023-02-28T07:02:26;6.70;;;3.95;;
75035;SDS011;64247;51.540;5.854;2023-02-28T07:06:27;4.13;;;3.17;;
75035;SDS011;64247;51.540;5.854;2023-02-28T07:10:29;6.07;;;4.03;;
75035;SDS011;64247;51.540;5.854;2023-02-28T07:14:30;8.85;;;3.92;;
75035;SDS011;64247;51.540;5.854;2023-02-28T07:18:31;6.10;;;3.35;;
75035;SDS011;64247;51.540;5.854;2023-02-28T07:22:32;4.95;;;3.88;;
75035;SDS011;64247;51.540;5.854;2023-02-28T07:24:33;4.28;;;3.38;;
75035;SDS011;64247;51.540;5.854;2023-02-28T07:28:37;3.85;;;3.20;;
75035;SDS011;64247;51.540;5.854;2023-02-28T07:30:38;4.47;;;3.70;;
75035;SDS011;64247;51.540;5.854;2023-02-28T07:32:39;5.88;;;3.13;;
75035;SDS011;64247;51.540;5.854;2023-02-28T07:34:39;5.18;;;2.95;;
75035;SDS011;64247;51.540;5.854;2023-02-28T07:36:40;4.63;;;3.35;;
75035;SDS011;64247;51.540;5.854;2023-02-28T07:38:44;5.25;;;3.58;;
75035;SDS011;64247;51.540;5.854;2023-02-28T07:40:47;4.65;;;3.40;;
75035;SDS011;64247;51.540;5.854;2023-02-28T07:42:47;6.35;;;3.92;;
75035;SDS011;64247;51.540;5.854;2023-02-28T07:44:51;4.57;;;3.88;;
75035;SDS011;64247;51.540;5.854;2023-02-28T07:46:53;4.78;;;3.67;;
75035;SDS011;64247;51.540;5.854;2023-02-28T07:48:53;6.15;;;4.20;;
75035;SDS011;64247;51.540;5.854;2023-02-28T07:50:55;4.95;;;3.55;;
75035;SDS011;64247;51.540;5.854;2023-02-28T07:52:57;5.47;;;3.45;;
75035;SDS011;64247;51.540;5.854;2023-02-28T07:54:58;8.45;;;4.72;;
75035;SDS011;64247;51.540;5.854;2023-02-28T07:56:59;29.80;;;4.85;;
75035;SDS011;64247;51.540;5.854;2023-02-28T07:58:59;11.90;;;3.80;;
75035;SDS011;64247;51.540;5.854;2023-02-28T08:01:05;9.60;;;3.88;;
75035;SDS011;64247;51.540;5.854;2023-02-28T08:03:08;8.40;;;4.28;;
75035;SDS011;64247;51.540;5.854;2023-02-28T08:05:08;7.07;;;3.60;;
75035;SDS011;64247;51.540;5.854;2023-02-28T08:07:09;8.77;;;2.85;;
75035;SDS011;64247;51.540;5.854;2023-02-28T08:09:13;6.38;;;3.60;;
75035;SDS011;64247;51.540;5.854;2023-02-28T08:11:15;5.90;;;2.92;;
75035;SDS011;64247;51.540;5.854;2023-02-28T08:13:16;3.33;;;2.80;;
75035;SDS011;64247;51.540;5.854;2023-02-28T08:15:16;3.03;;;2.40;;
75035;SDS011;64247;51.540;5.854;2023-02-28T08:17:17;11.95;;;3.47;;
75035;SDS011;64247;51.540;5.854;2023-02-28T08:19:18;7.10;;;2.83;;
75035;SDS011;64247;51.540;5.854;2023-02-28T08:21:19;9.18;;;3.13;;
75035;SDS011;64247;51.540;5.854;2023-02-28T08:23:19;8.52;;;3.70;;
75035;SDS011;64247;51.540;5.854;2023-02-28T08:25:20;3.78;;;2.58;;
75035;SDS011;64247;51.540;5.854;2023-02-28T08:27:21;10.05;;;3.15;;
75035;SDS011;64247;51.540;5.854;2023-02-28T08:29:21;3.15;;;2.20;;
75035;SDS011;64247;51.540;5.854;2023-02-28T08:31:22;1.60;;;1.48;;
75035;SDS011;64247;51.540;5.854;2023-02-28T08:33:23;4.97;;;2.00;;
75035;SDS011;64247;51.540;5.854;2023-02-28T08:35:24;1.55;;;1.27;;
75035;SDS011;64247;51.540;5.854;2023-02-28T08:37:25;1.83;;;1.50;;
75035;SDS011;64247;51.540;5.854;2023-02-28T08:39:25;2.13;;;1.73;;
75035;SDS011;64247;51.540;5.854;2023-02-28T08:41:26;3.15;;;1.70;;
75035;SDS011;64247;51.540;5.854;2023-02-28T08:43:27;4.32;;;2.10;;
75035;SDS011;64247;51.540;5.854;2023-02-28T08:45:28;3.35;;;1.70;;
75035;SDS011;64247;51.540;5.854;2023-02-28T08:47:28;1.67;;;1.45;;
75035;SDS011;64247;51.540;5.854;2023-02-28T08:49:29;5.28;;;2.10;;
75035;SDS011;64247;51.540;5.854;2023-02-28T08:51:30;3.38;;;1.60;;
75035;SDS011;64247;51.540;5.854;2023-02-28T08:53:30;2.83;;;1.70;;
75035;SDS011;64247;51.540;5.854;2023-02-28T08:55:31;2.22;;;1.88;;
75035;SDS011;64247;51.540;5.854;2023-02-28T08:57:32;2.55;;;1.65;;
75035;SDS011;64247;51.540;5.854;2023-02-28T08:59:33;2.47;;;1.85;;
75035;SDS011;64247;51.540;5.854;2023-02-28T09:01:33;4.15;;;1.58;;
75035;SDS011;64247;51.540;5.854;2023-02-28T09:03:34;3.45;;;1.35;;
75035;SDS011;64247;51.540;5.854;2023-02-28T09:05:35;1.55;;;1.00;;
75035;SDS011;64247;51.540;5.854;2023-02-28T09:07:36;3.63;;;1.30;;
75035;SDS011;64247;51.540;5.854;2023-02-28T09:09:36;1.20;;;0.77;;
75035;SDS011;64247;51.540;5.854;2023-02-28T09:11:37;1.65;;;0.80;;
75035;SDS011;64247;51.540;5.854;2023-02-28T09:13:38;1.38;;;1.10;;
75035;SDS011;64247;51.540;5.854;2023-02-28T09:15:38;0.70;;;0.70;;
75035;SDS011;64247;51.540;5.854;2023-02-28T09:17:39;2.22;;;1.00;;
75035;SDS011;64247;51.540;5.854;2023-02-28T09:19:39;4.28;;;1.40;;
75035;SDS011;64247;51.540;5.854;2023-02-28T09:21:40;1.20;;;0.80;;
75035;SDS011;64247;51.540;5.854;2023-02-28T09:23:41;0.80;;;0.80;;
75035;SDS011;64247;51.540;5.854;2023-02-28T09:25:45;1.55;;;1.08;;
75035;SDS011;64247;51.540;5.854;2023-02-28T09:27:47;3.35;;;0.70;;
75035;SDS011;64247;51.540;5.854;2023-02-28T09:29:48;0.70;;;0.70;;
75035;SDS011;64247;51.540;5.854;2023-02-28T09:31:49;3.85;;;1.08;;
75035;SDS011;64247;51.540;5.854;2023-02-28T09:33:50;0.77;;;0.73;;
75035;SDS011;64247;51.540;5.854;2023-02-28T09:35:57;0.50;;;0.50;;
75035;SDS011;64247;51.540;5.854;2023-02-28T09:37:58;1.85;;;0.90;;
75035;SDS011;64247;51.540;5.854;2023-02-28T09:39:58;1.27;;;1.17;;
75035;SDS011;64247;51.540;5.854;2023-02-28T09:41:59;1.58;;;1.27;;
75035;SDS011;64247;51.540;5.854;2023-02-28T09:44:00;0.85;;;0.65;;
75035;SDS011;64247;51.540;5.854;2023-02-28T09:48:23;2.10;;;0.77;;
75035;SDS011;64247;51.540;5.854;2023-02-28T09:52:46;1.27;;;0.88;;
75035;SDS011;64247;51.540;5.854;2023-02-28T09:54:48;1.95;;;0.80;;
75035;SDS011;64247;51.540;5.854;2023-02-28T09:56:50;1.13;;;0.82;;
75035;SDS011;64247;51.540;5.854;2023-02-28T10:03:55;1.58;;;1.15;;
75035;SDS011;64247;51.540;5.854;2023-02-28T10:05:58;1.17;;;0.90;;
75035;SDS011;64247;51.540;5.854;2023-02-28T10:12:46;2.03;;;0.60;;
75035;SDS011;64247;51.540;5.854;2023-02-28T10:14:48;0.55;;;0.55;;
75035;SDS011;64247;51.540;5.854;2023-02-28T10:17:03;1.33;;;1.10;;
75035;SDS011;64247;51.540;5.854;2023-02-28T10:19:16;2.25;;;0.57;;
75035;SDS011;64247;51.540;5.854;2023-02-28T10:21:22;0.93;;;0.73;;
75035;SDS011;64247;51.540;5.854;2023-02-28T10:23:28;0.98;;;0.85;;
75035;SDS011;64247;51.540;5.854;2023-02-28T10:25:32;1.23;;;0.73;;
75035;SDS011;64247;51.540;5.854;2023-02-28T10:27:32;1.35;;;0.90;;
75035;SDS011;64247;51.540;5.854;2023-02-28T10:29:33;0.55;;;0.55;;
75035;SDS011;64247;51.540;5.854;2023-02-28T10:31:34;1.88;;;1.17;;
75035;SDS011;64247;51.540;5.854;2023-02-28T10:33:35;0.98;;;0.90;;
75035;SDS011;64247;51.540;5.854;2023-02-28T10:35:36;1.48;;;0.70;;
75035;SDS011;64247;51.540;5.854;2023-02-28T10:37:40;7.78;;;1.27;;
75035;SDS011;64247;51.540;5.854;2023-02-28T10:39:44;1.75;;;0.82;;
75035;SDS011;64247;51.540;5.854;2023-02-28T10:41:46;3.38;;;0.98;;
75035;SDS011;64247;51.540;5.854;2023-02-28T10:43:46;2.55;;;1.13;;
75035;SDS011;64247;51.540;5.854;2023-02-28T10:50:43;2.05;;;1.05;;
75035;SDS011;64247;51.540;5.854;2023-02-28T10:52:44;1.10;;;0.65;;
75035;SDS011;64247;51.540;5.854;2023-02-28T10:54:45;2.75;;;0.77;;
75035;SDS011;64247;51.540;5.854;2023-02-28T10:56:48;2.78;;;1.20;;
75035;SDS011;64247;51.540;5.854;2023-02-28T11:03:53;0.77;;;0.75;;
75035;SDS011;64247;51.540;5.854;2023-02-28T11:05:54;2.65;;;1.20;;
75035;SDS011;64247;51.540;5.854;2023-02-28T11:07:56;5.18;;;1.65;;
75035;SDS011;64247;51.540;5.854;2023-02-28T11:09:57;1.25;;;1.08;;
75035;SDS011;64247;51.540;5.854;2023-02-28T11:11:58;0.90;;;0.85;;
75035;SDS011;64247;51.540;5.854;2023-02-28T11:14:03;0.95;;;0.93;;
75035;SDS011;64247;51.540;5.854;2023-02-28T11:16:05;1.15;;;0.82;;
75035;SDS011;64247;51.540;5.854;2023-02-28T11:20:33;0.85;;;0.50;;
75035;SDS011;64247;51.540;5.854;2023-02-28T11:22:36;2.95;;;0.65;;
75035;SDS011;64247;51.540;5.854;2023-02-28T11:24:42;2.45;;;0.80;;
75035;SDS011;64247;51.540;5.854;2023-02-28T11:26:45;4.50;;;1.20;;
75035;SDS011;64247;51.540;5.854;2023-02-28T11:28:46;2.78;;;0.70;;
75035;SDS011;64247;51.540;5.854;2023-02-28T11:30:46;1.30;;;1.20;;
75035;SDS011;64247;51.540;5.854;2023-02-28T11:32:59;0.50;;;0.50;;
75035;SDS011;64247;51.540;5.854;2023-02-28T11:37:22;1.00;;;0.93;;
75035;SDS011;64247;51.540;5.854;2023-02-28T11:39:24;3.40;;;1.60;;
75035;SDS011;64247;51.540;5.854;2023-02-28T11:41:42;2.13;;;1.17;;
75035;SDS011;64247;51.540;5.854;2023-02-28T11:43:53;1.27;;;0.90;;
75035;SDS011;64247;51.540;5.854;2023-02-28T11:48:18;1.33;;;1.17;;
75035;SDS011;64247;51.540;5.854;2023-02-28T11:52:44;0.60;;;0.60;;
75035;SDS011;64247;51.540;5.854;2023-02-28T11:57:30;1.65;;;1.00;;
75035;SDS011;64247;51.540;5.854;2023-02-28T12:02:03;0.93;;;0.93;;
75035;SDS011;64247;51.540;5.854;2023-02-28T12:04:22;3.08;;;0.85;;
75035;SDS011;64247;51.540;5.854;2023-02-28T12:06:28;2.15;;;0.82;;
75035;SDS011;64247;51.540;5.854;2023-02-28T12:10:37;1.55;;;1.00;;
75035;SDS011;64247;51.540;5.854;2023-02-28T12:12:48;1.75;;;1.20;;
75035;SDS011;64247;51.540;5.854;2023-02-28T12:19:57;1.80;;;0.82;;
75035;SDS011;64247;51.540;5.854;2023-02-28T12:26:47;2.60;;;1.23;;
75035;SDS011;64247;51.540;5.854;2023-02-28T12:28:54;1.05;;;0.77;;
75035;SDS011;64247;51.540;5.854;2023-02-28T12:30:58;1.27;;;1.13;;
75035;SDS011;64247;51.540;5.854;2023-02-28T12:35:25;1.02;;;0.88;;
75035;SDS011;64247;51.540;5.854;2023-02-28T12:37:45;5.57;;;1.80;;
75035;SDS011;64247;51.540;5.854;2023-02-28T12:39:48;0.65;;;0.65;;
75035;SDS011;64247;51.540;5.854;2023-02-28T12:41:54;1.52;;;1.20;;
75035;SDS011;64247;51.540;5.854;2023-02-28T12:44:07;1.30;;;0.93;;
75035;SDS011;64247;51.540;5.854;2023-02-28T12:48:46;1.17;;;1.08;;
75035;SDS011;64247;51.540;5.854;2023-02-28T12:50:47;0.95;;;0.80;;
75035;SDS011;64247;51.540;5.854;2023-02-28T12:57:49;1.13;;;1.02;;
75035;SDS011;64247;51.540;5.854;2023-02-28T12:59:55;1.55;;;1.40;;
75035;SDS011;64247;51.540;5.854;2023-02-28T13:09:09;1.38;;;1.27;;
75035;SDS011;64247;51.540;5.854;2023-02-28T13:13:30;0.98;;;0.85;;
75035;SDS011;64247;51.540;5.854;2023-02-28T13:15:31;1.25;;;1.02;;
75035;SDS011;64247;51.540;5.854;2023-02-28T13:17:35;1.08;;;1.00;;
75035;SDS011;64247;51.540;5.854;2023-02-28T13:19:45;1.58;;;1.10;;
75035;SDS011;64247;51.540;5.854;2023-02-28T13:21:47;3.35;;;1.42;;
75035;SDS011;64247;51.540;5.854;2023-02-28T13:26:12;1.40;;;1.30;;
75035;SDS011;64247;51.540;5.854;2023-02-28T13:28:13;1.23;;;1.08;;
75035;SDS011;64247;51.540;5.854;2023-02-28T13:49:28;1.77;;;1.67;;
75035;SDS011;64247;51.540;5.854;2023-02-28T13:51:43;2.40;;;1.75;;
75035;SDS011;64247;51.540;5.854;2023-02-28T13:53:51;1.73;;;1.63;;
75035;SDS011;64247;51.540;5.854;2023-02-28T14:05:32;3.22;;;2.17;;
75035;SDS011;64247;51.540;5.854;2023-02-28T14:07:38;2.33;;;2.13;;
75035;SDS011;64247;51.540;5.854;2023-02-28T14:09:41;1.38;;;1.20;;
75035;SDS011;64247;51.540;5.854;2023-02-28T14:11:45;1.75;;;1.65;;
75035;SDS011;64247;51.540;5.854;2023-02-28T14:13:46;2.78;;;1.92;;
75035;SDS011;64247;51.540;5.854;2023-02-28T14:15:57;2.28;;;1.33;;
75035;SDS011;64247;51.540;5.854;2023-02-28T14:18:02;3.38;;;1.52;;
75035;SDS011;64247;51.540;5.854;2023-02-28T14:20:04;5.88;;;1.75;;
75035;SDS011;64247;51.540;5.854;2023-02-28T14:29:24;1.90;;;1.73;;
75035;SDS011;64247;51.540;5.854;2023-02-28T14:31:34;2.28;;;1.60;;
75035;SDS011;64247;51.540;5.854;2023-02-28T14:38:27;3.15;;;1.85;;
75035;SDS011;64247;51.540;5.854;2023-02-28T14:40:30;5.65;;;1.88;;
75035;SDS011;64247;51.540;5.854;2023-02-28T14:42:33;5.53;;;1.67;;
75035;SDS011;64247;51.540;5.854;2023-02-28T14:44:35;4.25;;;1.65;;
75035;SDS011;64247;51.540;5.854;2023-02-28T14:46:37;1.70;;;1.52;;
75035;SDS011;64247;51.540;5.854;2023-02-28T14:48:38;2.47;;;1.95;;
75035;SDS011;64247;51.540;5.854;2023-02-28T14:50:39;2.00;;;1.80;;
75035;SDS011;64247;51.540;5.854;2023-02-28T14:52:40;4.28;;;1.88;;
75035;SDS011;64247;51.540;5.854;2023-02-28T14:54:43;4.10;;;1.60;;
75035;SDS011;64247;51.540;5.854;2023-02-28T14:56:48;1.55;;;1.45;;
75035;SDS011;64247;51.540;5.854;2023-02-28T14:58:53;3.35;;;1.73;;
75035;SDS011;64247;51.540;5.854;2023-02-28T15:00:55;2.80;;;1.60;;
75035;SDS011;64247;51.540;5.854;2023-02-28T15:02:57;2.85;;;2.10;;
75035;SDS011;64247;51.540;5.854;2023-02-28T15:04:59;2.03;;;1.85;;
75035;SDS011;64247;51.540;5.854;2023-02-28T15:07:07;3.92;;;1.67;;
75035;SDS011;64247;51.540;5.854;2023-02-28T15:09:08;3.03;;;1.75;;